createdAt,value
2022-12-08T00:02:16.858Z,11.75
2022-12-08T00:04:59.365Z,11.30
2022-12-08T00:07:44.802Z,12.07
2022-12-08T00:10:46.506Z,11.10
2022-12-08T00:13:02.903Z,10.73
2022-12-08T00:15:31.298Z,11.85
2022-12-08T00:17:59.478Z,10.98
2022-12-08T00:20:27.861Z,10.65
2022-12-08T00:22:55.939Z,10.75
2022-12-08T00:25:24.279Z,9.90
2022-12-08T00:27:52.323Z,10.27
2022-12-08T00:30:22.194Z,10.13
2022-12-08T00:32:50.315Z,10.25
2022-12-08T00:35:18.722Z,10.13
2022-12-08T00:37:46.893Z,10.02
2022-12-08T00:40:15.619Z,9.85
2022-12-08T00:42:43.887Z,9.73
2022-12-08T00:45:13.122Z,10.10
2022-12-08T00:47:42.751Z,10.38
2022-12-08T00:50:11.349Z,10.38
2022-12-08T00:52:39.827Z,10.30
2022-12-08T00:55:08.879Z,9.95
2022-12-08T00:57:37.098Z,10.70
2022-12-08T01:00:06.896Z,10.73
2022-12-08T01:02:36.029Z,11.13
2022-12-08T01:05:06.564Z,11.23
2022-12-08T01:07:34.879Z,10.93
2022-12-08T01:10:03.516Z,10.60
2022-12-08T01:12:31.812Z,10.82
2022-12-08T01:15:02.551Z,10.30
2022-12-08T01:17:31.176Z,9.30
2022-12-08T01:19:59.714Z,10.60
2022-12-08T01:22:29.297Z,11.43
2022-12-08T01:24:57.811Z,11.30
2022-12-08T01:27:25.963Z,12.05
2022-12-08T01:29:54.417Z,11.15
2022-12-08T01:32:22.773Z,11.60
2022-12-08T01:34:51.253Z,12.30
2022-12-08T01:37:19.437Z,11.15
2022-12-08T01:39:49.366Z,11.18
2022-12-08T01:42:21.193Z,11.07
2022-12-08T01:45:01.122Z,11.45
2022-12-08T01:47:33.713Z,9.85
2022-12-08T01:50:02.522Z,9.85
2022-12-08T01:52:35.411Z,9.75
2022-12-08T01:55:08.375Z,9.75
2022-12-08T01:57:38.651Z,9.30
2022-12-08T02:00:10.681Z,8.53
2022-12-08T02:02:43.482Z,9.35
2022-12-08T02:05:12.282Z,8.77
2022-12-08T02:07:40.448Z,9.32
2022-12-08T02:10:12.463Z,9.98
2022-12-08T02:12:40.558Z,9.38
2022-12-08T02:15:10.191Z,9.20
2022-12-08T02:17:49.466Z,10.07
2022-12-08T02:20:26.373Z,8.57
2022-12-08T02:22:59.692Z,9.20
2022-12-08T02:25:35.312Z,9.07
2022-12-08T02:28:12.279Z,9.25
2022-12-08T02:30:48.731Z,9.30
2022-12-08T02:33:44.153Z,9.85
2022-12-08T02:36:16.616Z,10.05
2022-12-08T02:38:49.766Z,11.20
2022-12-08T02:41:22.545Z,10.95
2022-12-08T02:43:56.411Z,11.85
2022-12-08T02:46:28.008Z,11.20
2022-12-08T02:51:25.946Z,11.32
2022-12-08T02:53:54.311Z,11.90
2022-12-08T02:56:36.601Z,11.50
2022-12-08T02:59:13.628Z,11.40
2022-12-08T03:01:54.959Z,11.25
2022-12-08T03:04:32.901Z,11.23
2022-12-08T03:07:06.292Z,11.57
2022-12-08T03:09:37.452Z,12.05
2022-12-08T03:12:10.765Z,11.85
2022-12-08T03:14:40.149Z,11.38
2022-12-08T03:17:09.818Z,11.60
2022-12-08T03:19:41.126Z,11.93
2022-12-08T03:22:10.599Z,11.48
2022-12-08T03:24:40.126Z,11.23
2022-12-08T03:27:10.085Z,11.63
2022-12-08T03:29:38.525Z,11.73
2022-12-08T03:32:10.756Z,11.27
2022-12-08T03:34:41.785Z,11.50
2022-12-08T03:39:38.217Z,11.73
2022-12-08T03:42:06.837Z,12.20
2022-12-08T03:44:35.021Z,12.45
2022-12-08T03:47:03.406Z,13.13
2022-12-08T03:49:31.657Z,12.18
2022-12-08T03:52:01.400Z,12.40
2022-12-08T03:54:29.601Z,12.07
2022-12-08T03:56:58.041Z,11.07
2022-12-08T03:59:26.412Z,11.88
2022-12-08T04:01:54.929Z,10.57
2022-12-08T04:04:23.236Z,11.65
2022-12-08T04:06:51.719Z,11.00
2022-12-08T04:09:21.222Z,10.73
2022-12-08T04:11:49.912Z,10.98
2022-12-08T04:14:18.116Z,10.55
2022-12-08T04:16:46.563Z,10.23
2022-12-08T04:19:15.375Z,11.02
2022-12-08T04:21:44.002Z,10.48
2022-12-08T04:24:12.247Z,11.60
2022-12-08T04:26:42.074Z,11.90
2022-12-08T04:29:10.185Z,12.45
2022-12-08T04:31:38.701Z,12.13
2022-12-08T04:34:06.899Z,12.60
2022-12-08T04:36:35.275Z,13.18
2022-12-08T04:39:03.361Z,13.30
2022-12-08T04:41:31.860Z,12.82
2022-12-08T04:44:01.371Z,14.30
2022-12-08T04:46:29.994Z,13.35
2022-12-08T04:48:58.212Z,13.88
2022-12-08T04:51:27.386Z,14.05
2022-12-08T04:53:55.519Z,14.05
2022-12-08T04:56:24.128Z,14.07
2022-12-08T04:58:52.192Z,13.80
2022-12-08T05:01:22.157Z,13.68
2022-12-08T05:03:50.324Z,14.43
2022-12-08T05:06:18.865Z,13.27
2022-12-08T05:08:46.964Z,14.13
2022-12-08T05:11:15.640Z,13.68
2022-12-08T05:13:43.726Z,14.65
2022-12-08T05:16:14.180Z,16.02
2022-12-08T05:18:44.469Z,13.60
2022-12-08T05:21:12.940Z,14.15
2022-12-08T05:23:41.108Z,13.52
2022-12-08T05:26:09.789Z,14.27
2022-12-08T05:28:42.675Z,14.68
2022-12-08T05:31:12.034Z,14.90
2022-12-08T05:33:40.645Z,15.02
2022-12-08T05:36:11.325Z,14.73
2022-12-08T05:38:39.516Z,14.10
2022-12-08T05:41:08.215Z,14.80
2022-12-08T05:43:36.719Z,14.02
2022-12-08T05:46:05.368Z,15.10
2022-12-08T05:48:33.875Z,13.98
2022-12-08T05:51:02.605Z,14.75
2022-12-08T05:53:32.157Z,14.57
2022-12-08T05:56:00.716Z,15.57
2022-12-08T05:58:29.037Z,13.23
2022-12-08T06:00:57.465Z,15.63
2022-12-08T06:03:25.832Z,14.63
2022-12-08T06:05:54.218Z,15.88
2022-12-08T06:08:22.571Z,15.20
2022-12-08T06:10:52.417Z,14.63
2022-12-08T06:13:20.668Z,13.45
2022-12-08T06:15:49.129Z,13.85
2022-12-08T06:18:17.300Z,13.65
2022-12-08T06:20:46.037Z,14.00
2022-12-08T06:23:14.102Z,13.70
2022-12-08T06:25:42.749Z,13.35
2022-12-08T06:28:12.287Z,12.93
2022-12-08T06:30:40.808Z,13.50
2022-12-08T06:33:08.968Z,12.60
2022-12-08T06:35:38.440Z,13.13
2022-12-08T06:38:06.554Z,11.57
2022-12-08T06:40:35.011Z,11.77
2022-12-08T06:43:03.243Z,12.13
2022-12-08T06:45:33.134Z,12.30
2022-12-08T06:48:02.774Z,11.40
2022-12-08T06:50:32.648Z,11.20
2022-12-08T06:53:05.158Z,12.15
2022-12-08T06:55:58.000Z,11.00
2022-12-08T06:58:22.888Z,10.75
2022-12-08T07:00:52.746Z,11.52
2022-12-08T07:03:21.301Z,11.70
2022-12-08T07:05:49.683Z,11.90
2022-12-08T07:08:17.879Z,11.73
2022-12-08T07:10:46.502Z,9.90
2022-12-08T07:13:14.661Z,12.98
2022-12-08T07:15:43.064Z,11.45
2022-12-08T07:18:12.639Z,12.52
2022-12-08T07:20:41.227Z,10.98
2022-12-08T07:23:09.449Z,11.30
2022-12-08T07:25:37.930Z,12.27
2022-12-08T07:28:10.783Z,10.80
2022-12-08T07:30:39.719Z,10.70
2022-12-08T07:33:08.120Z,10.85
2022-12-08T07:35:38.011Z,11.25
2022-12-08T07:38:06.088Z,10.18
2022-12-08T07:40:34.718Z,11.15
2022-12-08T07:43:02.896Z,12.43
2022-12-08T07:45:32.033Z,13.50
2022-12-08T07:48:00.391Z,12.65
2022-12-08T07:50:30.568Z,12.45
2022-12-08T07:53:28.101Z,12.55
2022-12-08T07:56:06.913Z,11.48
2022-12-08T07:58:35.352Z,12.18
2022-12-08T08:01:03.911Z,11.98
2022-12-08T08:03:32.108Z,12.00
2022-12-08T08:06:04.041Z,12.80
2022-12-08T08:08:33.633Z,13.02
2022-12-08T08:11:08.961Z,13.13
2022-12-08T08:13:41.709Z,12.57
2022-12-08T08:16:13.454Z,11.77
2022-12-08T08:18:42.033Z,13.55
2022-12-08T08:24:00.425Z,12.38
2022-12-08T08:26:28.876Z,11.63
2022-12-08T08:28:56.969Z,10.15
2022-12-08T08:31:25.994Z,12.30
2022-12-08T08:33:54.436Z,11.90
2022-12-08T08:36:22.809Z,11.30
2022-12-08T08:38:50.931Z,10.55
2022-12-08T08:41:20.979Z,10.18
2022-12-08T08:43:49.364Z,11.25
2022-12-08T08:46:17.921Z,10.95
2022-12-08T08:48:46.240Z,11.20
2022-12-08T08:51:15.722Z,13.27
2022-12-08T08:53:44.014Z,12.77
2022-12-08T08:56:13.709Z,12.00
2022-12-08T08:58:43.423Z,12.23
2022-12-08T09:01:16.474Z,12.25
2022-12-08T09:03:45.580Z,11.82
2022-12-08T09:06:14.155Z,11.95
2022-12-08T09:08:42.573Z,11.05
2022-12-08T09:11:11.550Z,11.02
2022-12-08T09:13:39.762Z,11.32
2022-12-08T09:16:10.734Z,11.95
2022-12-08T09:18:39.851Z,10.85
2022-12-08T09:21:09.387Z,10.38
2022-12-08T09:23:37.528Z,10.45
2022-12-08T09:26:06.272Z,11.07
2022-12-08T09:28:34.580Z,10.68
2022-12-08T09:31:03.368Z,11.15
2022-12-08T09:33:33.165Z,11.50
2022-12-08T09:36:03.619Z,11.38
2022-12-08T09:38:31.968Z,11.60
2022-12-08T09:41:01.125Z,10.80
2022-12-08T09:43:51.783Z,10.07
2022-12-08T09:46:20.716Z,10.00
2022-12-08T09:48:55.908Z,10.70
2022-12-08T09:51:25.792Z,10.93
2022-12-08T09:53:56.622Z,10.32
2022-12-08T09:56:27.745Z,10.38
2022-12-08T09:58:58.323Z,10.25
2022-12-08T10:01:29.821Z,10.02
2022-12-08T10:03:59.642Z,9.27
2022-12-08T10:06:32.223Z,10.68
2022-12-08T10:09:11.167Z,8.63
2022-12-08T10:11:45.608Z,8.10
2022-12-08T10:14:20.782Z,7.70
2022-12-08T10:16:51.362Z,8.77
2022-12-08T10:19:23.432Z,7.78
2022-12-08T10:21:52.119Z,8.98
2022-12-08T10:24:24.163Z,8.85
2022-12-08T10:26:52.641Z,7.97
2022-12-08T10:29:20.856Z,8.10
2022-12-08T10:31:49.968Z,7.72
2022-12-08T10:34:23.256Z,7.78
2022-12-08T10:36:53.380Z,8.52
2022-12-08T10:39:32.443Z,9.07
2022-12-08T10:42:18.759Z,8.73
2022-12-08T10:44:56.559Z,8.50
2022-12-08T10:47:27.263Z,8.40
2022-12-08T10:50:21.006Z,8.82
2022-12-08T10:52:56.152Z,8.77
2022-12-08T10:55:24.660Z,9.35
2022-12-08T10:57:53.107Z,9.70
2022-12-08T11:00:23.842Z,10.07
2022-12-08T11:02:58.388Z,9.30
2022-12-08T11:05:31.007Z,9.50
2022-12-08T11:08:00.220Z,11.27
2022-12-08T11:10:36.433Z,11.43
2022-12-08T11:13:07.113Z,10.15
2022-12-08T11:15:39.543Z,16.88
2022-12-08T11:18:10.930Z,16.05
2022-12-08T11:20:42.087Z,8.35
2022-12-08T11:25:50.268Z,10.65
2022-12-08T11:28:23.683Z,11.07
2022-12-08T11:30:57.683Z,27.23
2022-12-08T11:33:27.243Z,10.32
2022-12-08T11:36:01.429Z,10.27
2022-12-08T11:38:30.714Z,9.00
2022-12-08T11:41:02.830Z,8.65
2022-12-08T11:43:39.267Z,7.38
2022-12-08T11:46:13.857Z,8.90
2022-12-08T11:48:46.496Z,10.93
2022-12-08T11:51:18.651Z,8.20
2022-12-08T11:53:53.164Z,8.40
2022-12-08T11:56:23.821Z,11.48
2022-12-08T11:58:55.143Z,8.52
2022-12-08T12:01:25.697Z,10.13
2022-12-08T12:04:01.172Z,10.15
2022-12-08T12:06:54.743Z,9.27
2022-12-08T12:09:32.871Z,7.88
2022-12-08T12:12:16.051Z,9.15
2022-12-08T12:15:18.764Z,9.02
2022-12-08T12:17:49.288Z,9.40
2022-12-08T12:20:21.058Z,10.60
2022-12-08T12:25:23.736Z,12.55
2022-12-08T12:27:57.214Z,17.02
2022-12-08T12:30:27.556Z,9.38
2022-12-08T12:32:58.461Z,10.52
2022-12-08T12:35:33.661Z,13.45
2022-12-08T12:38:27.433Z,13.25
2022-12-08T12:41:00.256Z,12.30
2022-12-08T12:43:33.274Z,10.77
2022-12-08T12:46:42.268Z,10.93
2022-12-08T12:49:48.779Z,11.07
2022-12-08T12:52:42.872Z,11.98
2022-12-08T12:55:29.221Z,12.52
2022-12-08T12:57:58.525Z,11.85
2022-12-08T13:00:28.191Z,10.43
2022-12-08T13:02:57.961Z,9.13
2022-12-08T13:05:27.920Z,10.57
2022-12-08T13:07:58.343Z,10.27
2022-12-08T13:10:30.690Z,12.65
2022-12-08T13:13:08.649Z,11.50
2022-12-08T13:15:38.555Z,13.63
2022-12-08T13:18:07.901Z,16.25
2022-12-08T13:20:43.319Z,18.15
2022-12-08T13:23:29.489Z,14.60
2022-12-08T13:26:21.442Z,17.75
2022-12-08T13:29:15.183Z,15.05
2022-12-08T13:31:50.076Z,14.27
2022-12-08T13:34:22.614Z,13.25
2022-12-08T13:37:01.452Z,13.13
2022-12-08T13:39:33.794Z,11.43
2022-12-08T13:42:06.994Z,15.02
2022-12-08T13:45:18.492Z,12.10
2022-12-08T13:47:34.698Z,11.77
2022-12-08T13:58:38.708Z,17.30
2022-12-08T14:04:11.649Z,10.93
2022-12-08T14:06:38.506Z,12.00
2022-12-08T14:09:11.172Z,12.65
2022-12-08T14:11:41.551Z,16.23
2022-12-08T14:14:27.202Z,16.48
2022-12-08T14:17:05.247Z,13.65
2022-12-08T14:19:35.364Z,12.68
2022-12-08T14:22:11.500Z,14.23
2022-12-08T14:24:39.902Z,13.73
2022-12-08T14:27:10.534Z,13.20
2022-12-08T14:29:45.069Z,15.47
2022-12-08T14:32:29.179Z,13.80
2022-12-08T14:35:00.682Z,15.07
2022-12-08T14:37:30.360Z,14.32
2022-12-08T14:39:59.768Z,26.80
2022-12-08T14:42:30.045Z,39.92
2022-12-08T14:45:02.862Z,19.88
2022-12-08T14:47:33.492Z,35.28
2022-12-08T14:50:03.184Z,45.90
2022-12-08T14:52:32.181Z,77.35
2022-12-08T14:55:00.789Z,78.57
2022-12-08T14:57:34.911Z,30.95
2022-12-08T15:00:12.558Z,26.23
2022-12-08T15:02:46.389Z,27.17
2022-12-08T15:05:17.364Z,23.67
2022-12-08T15:10:26.555Z,27.05
2022-12-08T15:13:07.534Z,21.77
2022-12-08T15:15:51.283Z,23.85
2022-12-08T15:18:21.321Z,22.70
2022-12-08T15:20:51.659Z,33.03
2022-12-08T15:23:27.383Z,22.67
2022-12-08T15:25:56.835Z,20.75
2022-12-08T15:28:30.103Z,19.35
2022-12-08T15:31:00.242Z,20.60
2022-12-08T15:33:28.727Z,17.95
2022-12-08T15:35:56.995Z,19.08
2022-12-08T15:38:28.968Z,27.65
2022-12-08T15:40:58.753Z,16.42
2022-12-08T15:43:27.417Z,18.25
2022-12-08T15:46:00.354Z,16.13
2022-12-08T15:48:31.271Z,13.05
2022-12-08T15:50:59.972Z,14.87
2022-12-08T15:53:28.390Z,16.42
2022-12-08T15:58:53.728Z,17.92
2022-12-08T16:01:23.729Z,16.70
2022-12-08T16:07:20.220Z,14.18
2022-12-08T16:09:34.139Z,14.50
2022-12-08T16:12:20.346Z,12.65
2022-12-08T16:17:38.260Z,14.85
2022-12-08T16:20:12.922Z,15.60
2022-12-08T16:23:13.171Z,14.40
2022-12-08T16:25:52.614Z,15.30
2022-12-08T16:28:52.002Z,14.38
2022-12-08T16:31:13.310Z,14.63
2022-12-08T16:33:42.326Z,15.65
2022-12-08T16:36:12.425Z,19.40
2022-12-08T16:38:40.591Z,20.17
2022-12-08T16:41:32.038Z,19.48
2022-12-08T16:44:02.614Z,19.45
2022-12-08T16:46:31.241Z,22.45
2022-12-08T16:48:59.719Z,22.52
2022-12-08T16:51:29.580Z,31.77
2022-12-08T16:53:58.481Z,21.27
2022-12-08T16:56:32.519Z,22.73
2022-12-08T16:59:02.195Z,16.50
2022-12-08T17:01:31.266Z,16.45
2022-12-08T17:04:30.874Z,17.10
2022-12-08T17:06:52.877Z,17.40
2022-12-08T17:09:21.189Z,17.20
2022-12-08T17:11:49.867Z,20.92
2022-12-08T17:14:18.276Z,25.15
2022-12-08T17:16:47.098Z,20.08
2022-12-08T17:19:15.882Z,20.17
2022-12-08T17:21:45.250Z,17.35
2022-12-08T17:24:18.669Z,19.13
2022-12-08T17:26:51.762Z,23.63
2022-12-08T17:29:19.987Z,20.52
2022-12-08T17:31:48.513Z,22.20
2022-12-08T17:34:17.053Z,22.67
2022-12-08T17:36:45.569Z,20.60
2022-12-08T17:39:18.797Z,24.10
2022-12-08T17:41:48.007Z,30.10
2022-12-08T17:44:17.676Z,33.88
2022-12-08T17:46:52.149Z,29.42
2022-12-08T17:49:24.133Z,39.15
2022-12-08T17:51:54.740Z,31.25
2022-12-08T17:54:24.909Z,30.00
2022-12-08T17:56:53.439Z,30.67
2022-12-08T17:59:21.929Z,27.05
2022-12-08T18:01:50.540Z,34.22
2022-12-08T18:04:18.792Z,30.58
2022-12-08T18:06:47.377Z,26.67
2022-12-08T18:09:16.089Z,30.98
2022-12-08T18:11:47.185Z,26.85
2022-12-08T18:14:16.141Z,28.35
2022-12-08T18:16:46.190Z,28.08
2022-12-08T18:19:15.292Z,25.58
2022-12-08T18:21:44.221Z,23.48
2022-12-08T18:24:18.398Z,23.67
2022-12-08T18:26:48.261Z,24.17
2022-12-08T18:29:16.635Z,28.00
2022-12-08T18:31:45.134Z,24.95
2022-12-08T18:34:13.392Z,22.77
2022-12-08T18:36:42.021Z,24.50
2022-12-08T18:39:22.015Z,23.38
2022-12-08T18:41:51.995Z,22.05
2022-12-08T18:44:20.489Z,22.95
2022-12-08T18:46:49.169Z,20.77
2022-12-08T18:49:18.993Z,18.63
2022-12-08T18:51:47.759Z,23.15
2022-12-08T18:54:16.087Z,25.92
2022-12-08T18:56:44.623Z,23.27
2022-12-08T18:59:14.309Z,27.05
2022-12-08T19:01:43.049Z,25.20
2022-12-08T19:07:00.118Z,26.38
2022-12-08T19:09:29.111Z,24.85
2022-12-08T19:11:57.735Z,22.85
2022-12-08T19:14:28.477Z,26.50
2022-12-08T19:16:57.838Z,30.08
2022-12-08T19:19:27.827Z,32.05
2022-12-08T19:21:56.419Z,37.38
2022-12-08T19:24:24.869Z,33.35
2022-12-08T19:26:53.727Z,33.75
2022-12-08T19:29:22.008Z,25.30
2022-12-08T19:31:52.119Z,23.55
2022-12-08T19:34:20.419Z,23.63
2022-12-08T19:36:49.087Z,24.42
2022-12-08T19:39:36.541Z,25.05
2022-12-08T19:42:23.222Z,24.63
2022-12-08T19:44:54.769Z,25.30
2022-12-08T19:47:26.271Z,25.08
2022-12-08T19:50:16.000Z,27.05
2022-12-08T19:52:45.144Z,35.58
2022-12-08T19:55:13.893Z,33.05
2022-12-08T19:57:42.556Z,31.02
2022-12-08T20:00:13.680Z,43.30
2022-12-08T20:02:43.693Z,38.15
2022-12-08T20:05:12.521Z,24.80
2022-12-08T20:07:41.374Z,23.60
2022-12-08T20:10:13.970Z,21.38
2022-12-08T20:12:42.410Z,24.83
2022-12-08T20:15:11.784Z,23.17
2022-12-08T20:17:40.394Z,24.65
2022-12-08T20:20:13.800Z,25.27
2022-12-08T20:22:42.996Z,32.63
2022-12-08T20:25:13.225Z,31.02
2022-12-08T20:27:42.798Z,29.23
2022-12-08T20:30:16.741Z,26.48
2022-12-08T20:32:46.237Z,28.10
2022-12-08T20:35:17.922Z,28.08
2022-12-08T20:37:46.365Z,32.30
2022-12-08T20:40:14.582Z,34.00
2022-12-08T20:42:43.071Z,31.52
2022-12-08T20:45:11.525Z,30.70
2022-12-08T20:47:40.329Z,33.83
2022-12-08T20:50:10.056Z,33.58
2022-12-08T20:52:40.661Z,31.48
2022-12-08T20:55:10.014Z,30.38
2022-12-08T20:57:38.614Z,29.30
2022-12-08T21:00:08.498Z,28.98
2022-12-08T21:02:41.825Z,29.00
2022-12-08T21:05:13.737Z,27.73
2022-12-08T21:07:43.953Z,32.55
2022-12-08T21:10:12.426Z,29.00
2022-12-08T21:12:41.167Z,32.10
2022-12-08T21:15:12.336Z,29.83
2022-12-08T21:17:41.426Z,35.15
2022-12-08T21:20:10.711Z,26.25
2022-12-08T21:22:40.317Z,26.85
2022-12-08T21:25:10.909Z,26.88
2022-12-08T21:27:40.028Z,26.33
2022-12-08T21:30:10.817Z,25.45
2022-12-08T21:32:40.223Z,29.17
2022-12-08T21:35:10.052Z,28.33
2022-12-08T21:37:39.002Z,26.55
2022-12-08T21:40:08.714Z,26.27
2022-12-08T21:42:47.066Z,24.23
2022-12-08T21:45:17.253Z,21.85
2022-12-08T21:47:46.816Z,22.73
2022-12-08T21:50:15.880Z,22.65
2022-12-08T21:52:47.599Z,22.58
2022-12-08T21:55:17.159Z,20.98
2022-12-08T21:57:47.384Z,21.75
2022-12-08T22:00:18.266Z,21.67
2022-12-08T22:02:47.010Z,23.75
2022-12-08T22:05:15.489Z,22.80
2022-12-08T22:07:44.266Z,22.95
2022-12-08T22:10:12.863Z,22.08
2022-12-08T22:12:42.620Z,21.80
2022-12-08T22:15:13.065Z,22.98
2022-12-08T22:17:43.999Z,20.17
2022-12-08T22:20:14.129Z,24.08
2022-12-08T22:22:43.098Z,24.43
2022-12-08T22:25:12.677Z,24.08
2022-12-08T22:27:43.113Z,24.95
2022-12-08T22:30:13.484Z,25.38
2022-12-08T22:32:42.543Z,26.95
2022-12-08T22:35:11.373Z,26.42
2022-12-08T22:37:39.886Z,27.00
2022-12-08T22:40:09.519Z,26.00
2022-12-08T22:42:38.316Z,26.45
2022-12-08T22:45:08.102Z,28.38
2022-12-08T22:47:38.408Z,28.42
2022-12-08T22:50:08.246Z,27.00
2022-12-08T22:52:37.068Z,27.13
2022-12-08T22:55:06.164Z,29.17
2022-12-08T22:57:35.123Z,28.88
2022-12-08T23:00:03.637Z,28.50
2022-12-08T23:02:32.188Z,31.65
2022-12-08T23:05:02.221Z,32.88
2022-12-08T23:07:33.962Z,32.83
2022-12-08T23:10:02.251Z,32.55
2022-12-08T23:12:30.700Z,33.17
2022-12-08T23:14:58.973Z,32.92
2022-12-08T23:17:27.815Z,34.60
2022-12-08T23:19:56.235Z,31.70
2022-12-08T23:22:26.043Z,28.42
2022-12-08T23:24:54.530Z,28.05
2022-12-08T23:27:22.926Z,25.77
2022-12-08T23:29:51.360Z,21.58
2022-12-08T23:32:20.009Z,24.33
2022-12-08T23:34:48.967Z,24.15
2022-12-08T23:37:17.722Z,23.67
2022-12-08T23:39:47.476Z,23.65
2022-12-08T23:42:16.124Z,22.80
2022-12-08T23:44:44.632Z,23.33
2022-12-08T23:47:13.520Z,21.40
2022-12-08T23:49:41.862Z,23.27
2022-12-08T23:52:12.985Z,22.77
2022-12-08T23:54:41.910Z,22.98
2022-12-08T23:57:11.783Z,21.92
2022-12-08T23:59:40.079Z,23.67
